createdAt,value
2022-10-13T00:04:31.183Z,8.09
2022-10-13T00:09:40.960Z,8.09
2022-10-13T00:14:52.627Z,8.34
2022-10-13T00:20:01.741Z,8.34
2022-10-13T00:25:11.491Z,8.16
2022-10-13T00:30:21.269Z,8.16
2022-10-13T00:35:31.021Z,7.92
2022-10-13T00:40:42.055Z,7.92
2022-10-13T00:45:10.595Z,8
2022-10-13T00:50:18.445Z,8
2022-10-13T00:55:26.325Z,7.97
2022-10-13T01:03:32.384Z,7.97
2022-10-13T01:08:48.550Z,7.93
2022-10-13T01:12:34.759Z,7.93
2022-10-13T01:17:43.885Z,7.89
2022-10-13T01:22:51.720Z,7.89
2022-10-13T01:28:00.214Z,8.02
2022-10-13T01:33:09.350Z,8.02
2022-10-13T01:38:19.721Z,8.14
2022-10-13T01:43:28.882Z,8.14
2022-10-13T01:48:37.974Z,7.83
2022-10-13T01:53:48.396Z,7.83
2022-10-13T01:58:58.758Z,7.94
2022-10-13T02:04:08.520Z,8.26
2022-10-13T02:09:16.993Z,8.26
2022-10-13T02:14:26.755Z,8.1
2022-10-13T02:19:35.890Z,8.1
2022-10-13T02:24:44.362Z,8.08
2022-10-13T02:29:52.837Z,8.08
2022-10-13T02:35:02.623Z,8.33
2022-10-13T02:40:11.735Z,8.33
2022-10-13T02:45:21.483Z,7.95
2022-10-13T02:50:31.886Z,7.95
2022-10-13T02:55:41.645Z,8
2022-10-13T03:00:51.173Z,8
2022-10-13T03:05:59.912Z,8.07
2022-10-13T03:11:09.629Z,8.07
2022-10-13T03:16:20.042Z,8.07
2022-10-13T03:21:27.908Z,8.07
2022-10-13T03:26:37.646Z,8.05
2022-10-13T03:31:46.758Z,8.05
2022-10-13T03:36:56.292Z,8.12
2022-10-13T03:42:11.856Z,8.12
2022-10-13T03:47:27.344Z,8.34
2022-10-13T03:52:43.504Z,8.34
2022-10-13T03:57:59.698Z,7.78
2022-10-13T04:03:13.263Z,7.78
2022-10-13T04:08:28.143Z,7.93
2022-10-13T04:13:44.306Z,7.93
2022-10-13T04:18:59.810Z,7.8
2022-10-13T04:23:26.653Z,7.8
2022-10-13T04:28:42.805Z,7.96
2022-10-13T04:33:58.306Z,7.96
2022-10-13T04:39:15.272Z,8.01
2022-10-13T04:44:29.983Z,8.01
2022-10-13T04:49:46.778Z,7.85
2022-10-13T04:55:07.555Z,7.85
2022-10-13T05:00:16.544Z,8.2
2022-10-13T05:05:32.699Z,7.74
2022-10-13T05:10:47.614Z,7.74
2022-10-13T05:16:02.445Z,7.75
2022-10-13T05:21:18.622Z,7.75
2022-10-13T05:26:34.144Z,7.86
2022-10-13T05:31:50.935Z,7.86
2022-10-13T05:37:06.451Z,7.58
2022-10-13T05:42:22.905Z,7.58
2022-10-13T05:47:37.504Z,7.81
2022-10-13T05:52:52.422Z,7.81
2022-10-13T05:58:07.263Z,7.93
2022-10-13T06:03:22.202Z,7.93
2022-10-13T06:07:48.300Z,7.9
2022-10-13T06:12:21.064Z,7.9
2022-10-13T06:17:27.879Z,7.76
2022-10-13T06:22:37.649Z,7.76
2022-10-13T06:27:46.136Z,7.82
2022-10-13T06:32:55.221Z,7.82
2022-10-13T06:38:04.368Z,7.86
2022-10-13T06:43:12.851Z,7.86
2022-10-13T06:48:21.316Z,8.03
2022-10-13T06:53:29.834Z,8.03
2022-10-13T06:58:40.200Z,7.93
2022-10-13T07:03:49.967Z,7.93
2022-10-13T07:08:58.450Z,7.93
2022-10-13T07:14:12.523Z,7.93
2022-10-13T07:19:29.966Z,7.94
2022-10-13T07:24:47.246Z,7.94
2022-10-13T07:30:04.795Z,7.98
2022-10-13T07:35:20.970Z,7.98
2022-10-13T07:40:38.369Z,7.83
2022-10-13T07:45:55.804Z,7.83
2022-10-13T07:51:11.887Z,7.85
2022-10-13T07:56:28.063Z,7.82
2022-10-13T08:01:45.641Z,7.82
2022-10-13T08:06:13.076Z,7.89
2022-10-13T08:10:48.966Z,7.89
2022-10-13T08:22:00.790Z,7.67
2022-10-13T08:26:17.824Z,7.82
2022-10-13T08:31:29.042Z,7.82
2022-10-13T08:36:37.967Z,7.71
2022-10-13T08:41:47.750Z,7.71
2022-10-13T08:47:10.928Z,7.82
2022-10-13T08:52:07.867Z,7.82
2022-10-13T08:57:20.028Z,7.85
2022-10-13T09:02:26.171Z,7.85
2022-10-13T09:07:36.517Z,7.85
2022-10-13T09:12:46.292Z,7.85
2022-10-13T09:17:56.060Z,7.86
2022-10-13T09:23:05.802Z,7.86
2022-10-13T09:28:14.609Z,8.09
2022-10-13T09:33:23.481Z,8.09
2022-10-13T09:38:31.253Z,7.73
2022-10-13T09:43:40.366Z,7.73
2022-10-13T09:49:03.409Z,7.9
2022-10-13T09:54:19.720Z,7.9
2022-10-13T09:59:37.647Z,7.99
2022-10-13T10:04:55.091Z,7.99
2022-10-13T10:10:13.157Z,7.92
2022-10-13T10:20:46.923Z,8.13
2022-10-13T10:26:02.294Z,8.13
2022-10-13T10:31:18.433Z,8.37
2022-10-13T10:36:35.885Z,8.37
2022-10-13T10:41:53.397Z,7.84
2022-10-13T10:47:09.482Z,7.84
2022-10-13T10:57:45.646Z,7.93
2022-10-13T11:03:02.454Z,7.89
2022-10-13T11:08:20.523Z,8.01
2022-10-13T11:13:37.980Z,8.01
2022-10-13T11:18:56.686Z,7.76
2022-10-13T11:20:52.042Z,7.76
2022-10-13T11:26:01.344Z,7.76
2022-10-13T11:31:09.667Z,8.05
2022-10-13T11:36:18.773Z,7.91
2022-10-13T11:41:28.518Z,7.91
2022-10-13T11:46:40.853Z,7.9
2022-10-13T11:51:50.620Z,7.9
2022-10-13T11:57:04.174Z,7.93
2022-10-13T12:02:12.691Z,7.93
2022-10-13T12:07:21.800Z,8.01
2022-10-13T12:12:31.567Z,8.01
2022-10-13T12:17:40.714Z,8.07
2022-10-13T12:22:51.126Z,8.07
2022-10-13T12:28:03.399Z,7.87
2022-10-13T12:33:13.160Z,7.87
2022-10-13T12:38:22.303Z,7.9
2022-10-13T12:43:32.076Z,7.9
2022-10-13T12:48:42.919Z,7.92
2022-10-13T12:54:00.360Z,7.92
2022-10-13T12:59:18.768Z,7.88
2022-10-13T13:04:34.784Z,7.88
2022-10-13T13:09:52.216Z,7.87
2022-10-13T13:15:09.644Z,7.87
2022-10-13T13:24:52.489Z,7.83
2022-10-13T14:13:07.925Z,8.01
2022-10-13T14:18:20.253Z,8.01
2022-10-13T14:23:35.745Z,8.01
2022-10-13T14:28:50.690Z,7.96
2022-10-13T14:34:06.163Z,7.96
2022-10-13T14:39:22.311Z,8.01
2022-10-13T14:44:38.477Z,8.01
2022-10-13T14:49:54.654Z,7.9
2022-10-13T14:55:10.148Z,7.9
2022-10-13T15:00:25.054Z,8.08
2022-10-13T15:04:50.540Z,8.08
2022-10-13T15:09:15.436Z,8.1
2022-10-13T15:14:31.041Z,8.1
2022-10-13T15:19:45.823Z,8.08
2022-10-13T15:24:12.623Z,8.08
2022-10-13T15:29:27.563Z,8.28
2022-10-13T15:33:56.711Z,8.28
2022-10-13T15:39:06.444Z,8.23
2022-10-13T15:44:15.572Z,8.23
2022-10-13T15:49:25.326Z,8.24
2022-10-13T15:54:35.115Z,8.24
2022-10-13T15:59:44.843Z,8.3
2022-10-13T16:04:52.689Z,8.3
2022-10-13T16:10:02.764Z,7.95
2022-10-13T16:15:11.004Z,7.95
2022-10-13T16:20:20.046Z,8.04
2022-10-13T16:25:28.523Z,8.04
2022-10-13T16:30:36.995Z,8.38
2022-10-13T16:35:44.853Z,8.38
2022-10-13T16:40:53.322Z,8.32
2022-10-13T16:46:03.119Z,8.32
2022-10-13T16:51:12.209Z,8.19
2022-10-13T16:56:21.324Z,8.19
2022-10-13T17:01:30.440Z,8.23
2022-10-13T17:06:39.577Z,8.23
2022-10-13T17:17:10.469Z,8.15
2022-10-13T17:22:25.985Z,8.51
2022-10-13T17:27:40.852Z,8.51
2022-10-13T17:32:59.587Z,8.49
2022-10-13T17:38:11.934Z,8.49
2022-10-13T17:43:27.421Z,8.01
2022-10-13T17:48:42.940Z,8.27
2022-10-13T17:53:59.135Z,8.27
2022-10-13T17:59:13.986Z,8.18
2022-10-13T18:04:30.215Z,8.18
2022-10-13T18:09:48.546Z,8.12
2022-10-13T18:15:01.383Z,8.12
2022-10-13T18:20:16.086Z,8.28
2022-10-13T18:25:30.942Z,8.28
2022-10-13T18:30:45.854Z,8.38
2022-10-13T18:36:02.657Z,8.38
2022-10-13T18:39:38.149Z,7.89
2022-10-13T18:44:52.417Z,7.89
2022-10-13T18:50:07.263Z,7.84
2022-10-13T18:55:22.815Z,7.84
2022-10-13T19:00:38.340Z,7.6
2022-10-13T19:05:54.456Z,7.6
2022-10-13T19:11:09.373Z,7.72
2022-10-13T19:16:25.501Z,7.72
2022-10-13T19:21:41.029Z,7.88
2022-10-13T19:26:55.904Z,7.88
2022-10-13T19:32:10.789Z,7.94
2022-10-13T19:36:36.967Z,7.94
2022-10-13T19:41:11.884Z,8
2022-10-13T19:46:21.671Z,8
2022-10-13T19:51:30.775Z,7.97
2022-10-13T19:56:39.247Z,7.97
2022-10-13T20:01:50.307Z,7.84
2022-10-13T20:06:59.401Z,7.84
2022-10-13T20:12:09.183Z,8.13
2022-10-13T20:17:20.926Z,8.13
2022-10-13T20:22:28.044Z,7.88
2022-10-13T20:27:37.171Z,7.88
2022-10-13T20:32:45.002Z,8.17
2022-10-13T20:37:54.829Z,8.17
2022-10-13T20:43:03.250Z,8.22
2022-10-13T20:48:13.689Z,8.22
2022-10-13T20:53:21.488Z,8.36
2022-10-13T20:58:29.969Z,8.42
2022-10-13T21:03:40.397Z,8.42
2022-10-13T21:08:49.564Z,8.6
2022-10-13T21:13:57.961Z,8.6
2022-10-13T21:19:12.711Z,8.34
2022-10-13T21:24:30.141Z,8.34
2022-10-13T21:29:46.823Z,8.4
2022-10-13T21:35:05.734Z,8.4
2022-10-13T21:40:21.633Z,8.23
2022-10-13T21:45:37.321Z,8.23
2022-10-13T21:50:54.769Z,8.11
2022-10-13T21:56:12.366Z,8.11
2022-10-13T22:01:28.216Z,8.4
2022-10-13T22:06:44.590Z,8.4
2022-10-13T22:11:59.875Z,8.34
2022-10-13T22:15:46.122Z,8.34
2022-10-13T22:20:55.889Z,8.25
2022-10-13T22:26:05.003Z,8.25
2022-10-13T22:31:13.553Z,8.2
2022-10-13T22:36:23.250Z,8.2
2022-10-13T22:41:31.734Z,8.1
2022-10-13T22:46:46.296Z,8.1
2022-10-13T22:52:01.814Z,8.25
2022-10-13T22:57:18.261Z,8.25
2022-10-13T23:02:32.219Z,7.94
2022-10-13T23:07:47.776Z,7.94
2022-10-13T23:13:02.620Z,7.93
2022-10-13T23:18:18.146Z,7.93
2022-10-13T23:23:33.662Z,7.98
2022-10-13T23:28:48.949Z,7.98
2022-10-13T23:34:04.738Z,7.93
2022-10-13T23:39:20.231Z,7.93
2022-10-13T23:44:34.515Z,8.02
2022-10-13T23:49:50.624Z,8.02
2022-10-13T23:54:16.143Z,8.19
2022-10-13T23:58:48.532Z,8.19
